Orbital elements of FENGYUN 1C DEB
| Launched | 9 May 1999 |
| Flight ended | – |
| Launch site | Taiyuan Space Center, PRC |
| Owner | People's Republic of China |
| NORAD ID | 36258 |
| Date fetched |
Epoch osculation |
Inc. [°] |
Ecc. | RA asc node [hr] |
Arg Peri. [°] |
Mean anom [°] |
Mean motion [rev/day] |
Abs. mag |
| Date fetched |
Epoch osculation |
Inc. [°] |
Ecc. | RA asc node [hr] |
Arg Peri. [°] |
Mean anom [°] |
Mean motion [rev/day] |
Abs. mag |
| 2026 May 05 17:57 | 2026 May 05 09:29:37 | 99.0642 | 0.01710 | 11.8229 | 38.4415 | 322.8830 | 14.75726 | – |
| 2026 May 04 17:57 | 2026 Apr 29 08:39:58 | 99.0659 | 0.01710 | 11.3721 | 57.2041 | 322.8830 | 14.75726 | – |
| 2026 May 03 17:57 | 2026 Apr 29 08:39:58 | 99.0659 | 0.01710 | 11.3721 | 57.2041 | 322.8830 | 14.75726 | – |
| 2026 May 02 17:57 | 2026 Apr 29 08:39:58 | 99.0659 | 0.01710 | 11.3721 | 57.2041 | 322.8830 | 14.75726 | – |
| 2026 May 01 17:56 | 2026 Apr 29 08:39:58 | 99.0659 | 0.01710 | 11.3721 | 57.2041 | 322.8830 | 14.75726 | – |
| 2026 Apr 30 17:56 | 2026 Apr 29 08:39:58 | 99.0659 | 0.01710 | 11.3721 | 57.2041 | 322.8830 | 14.75726 | – |
| 2026 Apr 29 17:57 | 2026 Apr 22 09:03:05 | 99.0662 | 0.01716 | 10.8501 | 78.8575 | 322.8830 | 14.75726 | – |
| 2026 Apr 28 17:56 | 2026 Apr 22 09:03:05 | 99.0662 | 0.01716 | 10.8501 | 78.8575 | 322.8830 | 14.75726 | – |
| 2026 Apr 27 17:58 | 2026 Apr 22 09:03:05 | 99.0662 | 0.01716 | 10.8501 | 78.8575 | 322.8830 | 14.75726 | – |
| 2026 Apr 26 17:58 | 2026 Apr 22 09:03:05 | 99.0662 | 0.01716 | 10.8501 | 78.8575 | 322.8830 | 14.75726 | – |
| 2026 Apr 25 17:58 | 2026 Apr 22 09:03:05 | 99.0662 | 0.01716 | 10.8501 | 78.8575 | 322.8830 | 14.75726 | – |
| 2026 Apr 24 17:59 | 2026 Apr 22 09:03:05 | 99.0662 | 0.01716 | 10.8501 | 78.8575 | 322.8830 | 14.75726 | – |
| 2026 Apr 23 17:57 | 2026 Apr 19 09:26:51 | 99.0670 | 0.01717 | 10.6271 | 88.1137 | 322.8830 | 14.75726 | – |
| 2026 Apr 22 17:57 | 2026 Apr 19 09:26:51 | 99.0670 | 0.01717 | 10.6271 | 88.1137 | 322.8830 | 14.75726 | – |
| 2026 Apr 21 17:57 | 2026 Apr 19 09:26:51 | 99.0670 | 0.01717 | 10.6271 | 88.1137 | 322.8830 | 14.75726 | – |
| 2026 Apr 20 17:57 | 2026 Apr 19 09:26:51 | 99.0670 | 0.01717 | 10.6271 | 88.1137 | 322.8830 | 14.75726 | – |
| 2026 Apr 19 17:58 | 2026 Apr 19 09:26:51 | 99.0670 | 0.01717 | 10.6271 | 88.1137 | 322.8830 | 14.75726 | – |
| 2026 Apr 18 17:56 | 2026 Apr 12 21:13:03 | 99.0681 | 0.01718 | 10.1406 | 108.2749 | 322.8830 | 14.75726 | – |
| 2026 Apr 16 17:57 | 2026 Apr 12 21:13:03 | 99.0681 | 0.01718 | 10.1406 | 108.2749 | 322.8830 | 14.75726 | – |
| 2026 Apr 14 17:57 | 2026 Apr 12 21:13:03 | 99.0681 | 0.01718 | 10.1406 | 108.2749 | 322.8830 | 14.75726 | – |
| 2026 Apr 13 17:57 | 2026 Apr 12 21:13:03 | 99.0681 | 0.01718 | 10.1406 | 108.2749 | 322.8830 | 14.75726 | – |
| 2026 Apr 12 17:57 | 2026 Apr 08 09:48:25 | 99.0685 | 0.01718 | 9.8061 | 122.1448 | 322.8830 | 14.75726 | – |
| 2026 Apr 11 17:57 | 2026 Apr 08 09:48:25 | 99.0685 | 0.01718 | 9.8061 | 122.1448 | 322.8830 | 14.75726 | – |
| 2026 Apr 10 17:58 | 2026 Apr 08 09:48:25 | 99.0685 | 0.01718 | 9.8061 | 122.1448 | 322.8830 | 14.75726 | – |
| 2026 Apr 09 18:01 | 2026 Apr 08 09:48:25 | 99.0685 | 0.01718 | 9.8061 | 122.1448 | 322.8830 | 14.75726 | – |
| 2026 Apr 08 17:57 | 2026 Apr 08 09:48:25 | 99.0685 | 0.01718 | 9.8061 | 122.1448 | 322.8830 | 14.75726 | – |